Terminal Aerodrome Forecast
Issued by NWS

Home | Current Version | Previous Version | Text Only | Print | Product List | Glossary Off
Versions: 1 2 3 4 5 6 7 8 9 10 11 12 13 14 15 16 17 18

000
FTUS44 KLZK 272104 AAB
TAFLIT
TAF AMD
KLIT 272104Z 2721/2818 18012KT P6SM -SHRA SCT025 BKN100
     FM280100 17009KT P6SM OVC020
     FM281000 18008KT 4SM BR OVC008
     FM281400 19010KT P6SM OVC025=

USA.gov is the U.S. government's official web portal to all federal, state and local government web resources and services.